sensor_id;sensor_type;location;lat;lon;timestamp;temperature;humidity
28546;DHT22;15749;49.606;8.738;2023-02-19T00:00:17;15.20;76.90
28546;DHT22;15749;49.606;8.738;2023-02-19T00:02:47;15.20;76.90
28546;DHT22;15749;49.606;8.738;2023-02-19T00:05:16;15.20;77.60
28546;DHT22;15749;49.606;8.738;2023-02-19T00:07:45;15.20;76.80
28546;DHT22;15749;49.606;8.738;2023-02-19T00:10:14;15.30;77.00
28546;DHT22;15749;49.606;8.738;2023-02-19T00:12:44;15.30;77.00
28546;DHT22;15749;49.606;8.738;2023-02-19T00:15:13;15.30;77.00
28546;DHT22;15749;49.606;8.738;2023-02-19T00:17:43;15.30;77.00
28546;DHT22;15749;49.606;8.738;2023-02-19T00:20:12;15.30;77.10
28546;DHT22;15749;49.606;8.738;2023-02-19T00:22:42;15.30;77.00
28546;DHT22;15749;49.606;8.738;2023-02-19T00:25:11;15.30;76.90
28546;DHT22;15749;49.606;8.738;2023-02-19T00:27:43;15.30;76.90
28546;DHT22;15749;49.606;8.738;2023-02-19T00:30:12;15.30;76.80
28546;DHT22;15749;49.606;8.738;2023-02-19T00:32:42;15.40;77.70
28546;DHT22;15749;49.606;8.738;2023-02-19T00:35:12;15.40;77.00
28546;DHT22;15749;49.606;8.738;2023-02-19T00:37:41;15.40;76.90
28546;DHT22;15749;49.606;8.738;2023-02-19T00:40:13;15.40;76.90
28546;DHT22;15749;49.606;8.738;2023-02-19T00:42:43;15.40;76.90
28546;DHT22;15749;49.606;8.738;2023-02-19T00:45:15;15.40;76.80
28546;DHT22;15749;49.606;8.738;2023-02-19T00:47:46;15.40;76.90
28546;DHT22;15749;49.606;8.738;2023-02-19T00:50:17;15.40;76.90
28546;DHT22;15749;49.606;8.738;2023-02-19T00:52:47;15.40;76.90
28546;DHT22;15749;49.606;8.738;2023-02-19T00:55:16;15.40;76.90
28546;DHT22;15749;49.606;8.738;2023-02-19T00:57:45;15.40;77.00
28546;DHT22;15749;49.606;8.738;2023-02-19T01:00:14;15.40;77.00
28546;DHT22;15749;49.606;8.738;2023-02-19T01:02:43;15.40;76.90
28546;DHT22;15749;49.606;8.738;2023-02-19T01:05:16;15.40;76.90
28546;DHT22;15749;49.606;8.738;2023-02-19T01:07:45;15.40;77.00
28546;DHT22;15749;49.606;8.738;2023-02-19T01:10:14;15.40;76.80
28546;DHT22;15749;49.606;8.738;2023-02-19T01:12:44;15.40;76.80
28546;DHT22;15749;49.606;8.738;2023-02-19T01:15:13;15.30;76.70
28546;DHT22;15749;49.606;8.738;2023-02-19T01:17:45;15.40;76.90
28546;DHT22;15749;49.606;8.738;2023-02-19T01:20:15;15.30;76.80
28546;DHT22;15749;49.606;8.738;2023-02-19T01:22:44;15.30;76.90
28546;DHT22;15749;49.606;8.738;2023-02-19T01:25:13;15.30;77.00
28546;DHT22;15749;49.606;8.738;2023-02-19T01:27:43;15.30;77.10
28546;DHT22;15749;49.606;8.738;2023-02-19T01:30:12;15.30;77.10
28546;DHT22;15749;49.606;8.738;2023-02-19T01:32:41;15.30;77.30
28546;DHT22;15749;49.606;8.738;2023-02-19T01:35:10;15.30;77.20
28546;DHT22;15749;49.606;8.738;2023-02-19T01:37:41;15.30;77.30
28546;DHT22;15749;49.606;8.738;2023-02-19T01:40:12;15.30;77.30
28546;DHT22;15749;49.606;8.738;2023-02-19T01:42:42;15.30;77.20
28546;DHT22;15749;49.606;8.738;2023-02-19T01:45:22;15.30;77.40
28546;DHT22;15749;49.606;8.738;2023-02-19T01:47:58;15.30;77.40
28546;DHT22;15749;49.606;8.738;2023-02-19T01:50:35;15.30;77.60
28546;DHT22;15749;49.606;8.738;2023-02-19T01:53:08;15.30;77.40
28546;DHT22;15749;49.606;8.738;2023-02-19T01:55:40;15.30;77.60
28546;DHT22;15749;49.606;8.738;2023-02-19T01:58:10;15.30;78.20
28546;DHT22;15749;49.606;8.738;2023-02-19T02:00:39;15.30;77.60
28546;DHT22;15749;49.606;8.738;2023-02-19T02:03:08;15.30;77.50
28546;DHT22;15749;49.606;8.738;2023-02-19T02:05:47;15.30;77.50
28546;DHT22;15749;49.606;8.738;2023-02-19T02:08:21;15.30;78.60
28546;DHT22;15749;49.606;8.738;2023-02-19T02:11:09;15.30;77.70
28546;DHT22;15749;49.606;8.738;2023-02-19T02:13:39;15.30;78.40
28546;DHT22;15749;49.606;8.738;2023-02-19T02:16:19;15.30;77.80
28546;DHT22;15749;49.606;8.738;2023-02-19T02:18:58;15.30;78.10
28546;DHT22;15749;49.606;8.738;2023-02-19T02:21:52;15.30;78.00
28546;DHT22;15749;49.606;8.738;2023-02-19T02:24:59;15.30;78.20
28546;DHT22;15749;49.606;8.738;2023-02-19T02:27:48;15.30;79.20
28546;DHT22;15749;49.606;8.738;2023-02-19T02:30:40;15.30;78.00
28546;DHT22;15749;49.606;8.738;2023-02-19T02:33:20;15.30;77.80
28546;DHT22;15749;49.606;8.738;2023-02-19T02:35:59;15.30;78.10
28546;DHT22;15749;49.606;8.738;2023-02-19T02:38:34;15.30;77.80
28546;DHT22;15749;49.606;8.738;2023-02-19T02:41:05;15.30;77.60
28546;DHT22;15749;49.606;8.738;2023-02-19T02:43:35;15.30;77.70
28546;DHT22;15749;49.606;8.738;2023-02-19T02:46:10;15.20;77.60
28546;DHT22;15749;49.606;8.738;2023-02-19T02:48:43;15.20;77.90
28546;DHT22;15749;49.606;8.738;2023-02-19T02:51:17;15.20;78.00
28546;DHT22;15749;49.606;8.738;2023-02-19T02:54:11;15.20;77.90
28546;DHT22;15749;49.606;8.738;2023-02-19T02:57:05;15.20;77.70
28546;DHT22;15749;49.606;8.738;2023-02-19T02:59:41;15.20;77.80
28546;DHT22;15749;49.606;8.738;2023-02-19T03:02:17;15.20;77.80
28546;DHT22;15749;49.606;8.738;2023-02-19T03:04:52;15.20;78.00
28546;DHT22;15749;49.606;8.738;2023-02-19T03:07:46;15.20;78.00
28546;DHT22;15749;49.606;8.738;2023-02-19T03:10:26;15.20;78.10
28546;DHT22;15749;49.606;8.738;2023-02-19T03:12:58;15.20;78.10
28546;DHT22;15749;49.606;8.738;2023-02-19T03:15:48;15.20;78.20
28546;DHT22;15749;49.606;8.738;2023-02-19T03:18:46;15.10;78.00
28546;DHT22;15749;49.606;8.738;2023-02-19T03:21:37;15.20;78.20
28546;DHT22;15749;49.606;8.738;2023-02-19T03:24:10;15.10;78.20
28546;DHT22;15749;49.606;8.738;2023-02-19T03:27:01;15.10;78.10
28546;DHT22;15749;49.606;8.738;2023-02-19T03:29:39;15.20;78.10
28546;DHT22;15749;49.606;8.738;2023-02-19T03:32:12;15.10;78.90
28546;DHT22;15749;49.606;8.738;2023-02-19T03:34:51;15.10;78.40
28546;DHT22;15749;49.606;8.738;2023-02-19T03:37:27;15.10;78.60
28546;DHT22;15749;49.606;8.738;2023-02-19T03:39:59;15.10;78.50
28546;DHT22;15749;49.606;8.738;2023-02-19T03:42:35;15.10;78.20
28546;DHT22;15749;49.606;8.738;2023-02-19T03:45:31;15.10;78.50
28546;DHT22;15749;49.606;8.738;2023-02-19T03:51:12;15.10;78.50
28546;DHT22;15749;49.606;8.738;2023-02-19T03:53:52;15.10;78.60
28546;DHT22;15749;49.606;8.738;2023-02-19T03:56:34;15.10;78.40
28546;DHT22;15749;49.606;8.738;2023-02-19T03:59:10;15.10;79.20
28546;DHT22;15749;49.606;8.738;2023-02-19T04:01:46;15.10;78.60
28546;DHT22;15749;49.606;8.738;2023-02-19T04:04:22;15.10;78.60
28546;DHT22;15749;49.606;8.738;2023-02-19T04:06:56;15.10;78.50
28546;DHT22;15749;49.606;8.738;2023-02-19T04:09:32;15.00;78.50
28546;DHT22;15749;49.606;8.738;2023-02-19T04:12:12;15.00;78.60
28546;DHT22;15749;49.606;8.738;2023-02-19T04:14:48;15.00;78.50
28546;DHT22;15749;49.606;8.738;2023-02-19T04:17:23;15.00;78.40
28546;DHT22;15749;49.606;8.738;2023-02-19T04:19:56;15.00;79.20
28546;DHT22;15749;49.606;8.738;2023-02-19T04:22:28;15.00;78.50
28546;DHT22;15749;49.606;8.738;2023-02-19T04:24:57;15.00;78.60
28546;DHT22;15749;49.606;8.738;2023-02-19T04:27:27;15.00;78.60
28546;DHT22;15749;49.606;8.738;2023-02-19T04:29:56;15.00;78.70
28546;DHT22;15749;49.606;8.738;2023-02-19T04:32:25;15.00;78.70
28546;DHT22;15749;49.606;8.738;2023-02-19T04:34:54;15.00;78.80
28546;DHT22;15749;49.606;8.738;2023-02-19T04:37:27;15.00;78.80
28546;DHT22;15749;49.606;8.738;2023-02-19T04:39:56;14.90;78.70
28546;DHT22;15749;49.606;8.738;2023-02-19T04:42:28;15.00;78.80
28546;DHT22;15749;49.606;8.738;2023-02-19T04:44:57;15.00;78.90
28546;DHT22;15749;49.606;8.738;2023-02-19T04:47:26;15.00;78.90
28546;DHT22;15749;49.606;8.738;2023-02-19T04:49:55;15.00;78.90
28546;DHT22;15749;49.606;8.738;2023-02-19T04:52:24;15.00;79.70
28546;DHT22;15749;49.606;8.738;2023-02-19T04:54:54;15.00;79.00
28546;DHT22;15749;49.606;8.738;2023-02-19T04:57:23;15.00;79.00
28546;DHT22;15749;49.606;8.738;2023-02-19T04:59:55;15.00;78.90
28546;DHT22;15749;49.606;8.738;2023-02-19T05:02:24;15.00;78.90
28546;DHT22;15749;49.606;8.738;2023-02-19T05:04:53;15.00;78.90
28546;DHT22;15749;49.606;8.738;2023-02-19T05:07:25;14.90;78.90
28546;DHT22;15749;49.606;8.738;2023-02-19T05:09:55;14.90;78.90
28546;DHT22;15749;49.606;8.738;2023-02-19T05:12:26;14.90;79.00
28546;DHT22;15749;49.606;8.738;2023-02-19T05:14:57;14.90;79.00
28546;DHT22;15749;49.606;8.738;2023-02-19T05:17:26;14.90;79.00
28546;DHT22;15749;49.606;8.738;2023-02-19T05:19:55;14.90;79.00
28546;DHT22;15749;49.606;8.738;2023-02-19T05:22:24;14.90;79.00
28546;DHT22;15749;49.606;8.738;2023-02-19T05:24:54;14.90;79.70
28546;DHT22;15749;49.606;8.738;2023-02-19T05:27:23;14.90;79.10
28546;DHT22;15749;49.606;8.738;2023-02-19T05:29:52;14.90;79.00
28546;DHT22;15749;49.606;8.738;2023-02-19T05:32:21;14.90;78.90
28546;DHT22;15749;49.606;8.738;2023-02-19T05:34:50;14.90;78.90
28546;DHT22;15749;49.606;8.738;2023-02-19T05:37:19;14.80;79.00
28546;DHT22;15749;49.606;8.738;2023-02-19T05:39:48;14.90;79.20
28546;DHT22;15749;49.606;8.738;2023-02-19T05:42:19;14.80;79.70
28546;DHT22;15749;49.606;8.738;2023-02-19T05:44:48;14.80;79.20
28546;DHT22;15749;49.606;8.738;2023-02-19T05:47:20;14.80;79.20
28546;DHT22;15749;49.606;8.738;2023-02-19T05:49:49;14.80;79.20
28546;DHT22;15749;49.606;8.738;2023-02-19T05:52:18;14.80;79.20
28546;DHT22;15749;49.606;8.738;2023-02-19T05:54:47;14.80;79.30
28546;DHT22;15749;49.606;8.738;2023-02-19T05:57:16;14.80;79.30
28546;DHT22;15749;49.606;8.738;2023-02-19T05:59:48;14.80;79.40
28546;DHT22;15749;49.606;8.738;2023-02-19T06:02:17;14.80;79.60
28546;DHT22;15749;49.606;8.738;2023-02-19T06:04:46;14.80;79.40
28546;DHT22;15749;49.606;8.738;2023-02-19T06:07:18;14.80;79.60
28546;DHT22;15749;49.606;8.738;2023-02-19T06:09:49;14.80;79.60
28546;DHT22;15749;49.606;8.738;2023-02-19T06:12:18;14.80;80.50
28546;DHT22;15749;49.606;8.738;2023-02-19T06:14:48;14.80;79.70
28546;DHT22;15749;49.606;8.738;2023-02-19T06:17:18;14.80;79.70
28546;DHT22;15749;49.606;8.738;2023-02-19T06:19:47;14.80;79.70
28546;DHT22;15749;49.606;8.738;2023-02-19T06:22:16;14.80;79.60
28546;DHT22;15749;49.606;8.738;2023-02-19T06:24:46;14.80;79.60
28546;DHT22;15749;49.606;8.738;2023-02-19T06:27:15;14.80;79.70
28546;DHT22;15749;49.606;8.738;2023-02-19T06:29:44;14.80;79.70
28546;DHT22;15749;49.606;8.738;2023-02-19T06:32:18;14.80;79.70
28546;DHT22;15749;49.606;8.738;2023-02-19T06:34:47;14.70;79.70
28546;DHT22;15749;49.606;8.738;2023-02-19T06:37:16;14.80;79.70
28546;DHT22;15749;49.606;8.738;2023-02-19T06:39:45;14.70;79.70
28546;DHT22;15749;49.606;8.738;2023-02-19T06:42:14;14.70;79.70
28546;DHT22;15749;49.606;8.738;2023-02-19T06:44:43;14.70;79.90
28546;DHT22;15749;49.606;8.738;2023-02-19T06:47:16;14.70;79.80
28546;DHT22;15749;49.606;8.738;2023-02-19T06:49:45;14.70;80.00
28546;DHT22;15749;49.606;8.738;2023-02-19T06:52:14;14.70;80.10
28546;DHT22;15749;49.606;8.738;2023-02-19T06:54:43;14.70;80.10
28546;DHT22;15749;49.606;8.738;2023-02-19T06:57:13;14.70;80.10
28546;DHT22;15749;49.606;8.738;2023-02-19T06:59:42;14.70;80.10
28546;DHT22;15749;49.606;8.738;2023-02-19T07:02:11;14.70;80.70
28546;DHT22;15749;49.606;8.738;2023-02-19T07:04:42;14.70;80.90
28546;DHT22;15749;49.606;8.738;2023-02-19T07:07:11;14.70;80.20
28546;DHT22;15749;49.606;8.738;2023-02-19T07:09:40;14.70;80.10
28546;DHT22;15749;49.606;8.738;2023-02-19T07:12:12;14.70;80.10
28546;DHT22;15749;49.606;8.738;2023-02-19T07:14:41;14.70;80.10
28546;DHT22;15749;49.606;8.738;2023-02-19T07:17:10;14.70;80.00
28546;DHT22;15749;49.606;8.738;2023-02-19T07:19:44;14.70;80.00
28546;DHT22;15749;49.606;8.738;2023-02-19T07:22:13;14.70;80.10
28546;DHT22;15749;49.606;8.738;2023-02-19T07:24:42;14.70;80.10
28546;DHT22;15749;49.606;8.738;2023-02-19T07:27:14;14.70;80.10
28546;DHT22;15749;49.606;8.738;2023-02-19T07:29:43;14.70;80.20
28546;DHT22;15749;49.606;8.738;2023-02-19T07:32:15;14.70;80.30
28546;DHT22;15749;49.606;8.738;2023-02-19T07:34:45;14.70;80.20
28546;DHT22;15749;49.606;8.738;2023-02-19T07:37:14;14.70;80.40
28546;DHT22;15749;49.606;8.738;2023-02-19T07:39:46;14.70;80.30
28546;DHT22;15749;49.606;8.738;2023-02-19T07:42:15;14.70;80.20
28546;DHT22;15749;49.606;8.738;2023-02-19T07:44:44;14.70;80.20
28546;DHT22;15749;49.606;8.738;2023-02-19T07:47:13;14.70;81.10
28546;DHT22;15749;49.606;8.738;2023-02-19T07:49:42;14.70;80.40
28546;DHT22;15749;49.606;8.738;2023-02-19T07:52:13;14.70;80.30
28546;DHT22;15749;49.606;8.738;2023-02-19T07:54:43;14.70;80.40
28546;DHT22;15749;49.606;8.738;2023-02-19T07:57:13;14.70;80.30
28546;DHT22;15749;49.606;8.738;2023-02-19T07:59:43;14.70;80.30
28546;DHT22;15749;49.606;8.738;2023-02-19T08:02:15;14.70;80.30
28546;DHT22;15749;49.606;8.738;2023-02-19T08:05:05;14.70;80.60
28546;DHT22;15749;49.606;8.738;2023-02-19T08:07:37;14.70;80.50
28546;DHT22;15749;49.606;8.738;2023-02-19T08:10:06;14.80;80.60
28546;DHT22;15749;49.606;8.738;2023-02-19T08:12:57;14.70;80.60
28546;DHT22;15749;49.606;8.738;2023-02-19T08:15:44;14.70;80.70
28546;DHT22;15749;49.606;8.738;2023-02-19T08:18:15;14.70;80.60
28546;DHT22;15749;49.606;8.738;2023-02-19T08:20:44;14.70;80.60
28546;DHT22;15749;49.606;8.738;2023-02-19T08:23:16;14.70;80.70
28546;DHT22;15749;49.606;8.738;2023-02-19T08:25:48;14.70;80.90
28546;DHT22;15749;49.606;8.738;2023-02-19T08:28:19;14.80;80.90
28546;DHT22;15749;49.606;8.738;2023-02-19T08:30:48;14.80;80.90
28546;DHT22;15749;49.606;8.738;2023-02-19T08:33:20;14.80;81.60
28546;DHT22;15749;49.606;8.738;2023-02-19T08:35:50;14.80;81.10
28546;DHT22;15749;49.606;8.738;2023-02-19T08:38:22;14.80;81.00
28546;DHT22;15749;49.606;8.738;2023-02-19T08:40:52;14.80;81.10
28546;DHT22;15749;49.606;8.738;2023-02-19T08:43:22;14.80;81.00
28546;DHT22;15749;49.606;8.738;2023-02-19T08:45:52;14.80;81.00
28546;DHT22;15749;49.606;8.738;2023-02-19T08:48:23;14.90;81.10
28546;DHT22;15749;49.606;8.738;2023-02-19T08:50:53;14.90;81.10
28546;DHT22;15749;49.606;8.738;2023-02-19T08:53:25;14.90;81.20
28546;DHT22;15749;49.606;8.738;2023-02-19T08:55:54;14.90;81.30
28546;DHT22;15749;49.606;8.738;2023-02-19T08:58:24;14.90;81.30
28546;DHT22;15749;49.606;8.738;2023-02-19T09:00:53;14.90;81.40
28546;DHT22;15749;49.606;8.738;2023-02-19T09:03:25;15.00;81.40
28546;DHT22;15749;49.606;8.738;2023-02-19T09:05:54;15.00;81.30
28546;DHT22;15749;49.606;8.738;2023-02-19T09:08:25;15.00;81.30
28546;DHT22;15749;49.606;8.738;2023-02-19T09:10:58;15.00;81.30
28546;DHT22;15749;49.606;8.738;2023-02-19T09:13:28;15.00;81.90
28546;DHT22;15749;49.606;8.738;2023-02-19T09:15:57;15.00;81.10
28546;DHT22;15749;49.606;8.738;2023-02-19T09:18:30;15.00;81.10
28546;DHT22;15749;49.606;8.738;2023-02-19T09:21:02;15.00;81.00
28546;DHT22;15749;49.606;8.738;2023-02-19T09:23:37;15.00;81.00
28546;DHT22;15749;49.606;8.738;2023-02-19T09:26:06;15.10;80.90
28546;DHT22;15749;49.606;8.738;2023-02-19T09:28:36;15.00;80.80
28546;DHT22;15749;49.606;8.738;2023-02-19T09:31:10;15.00;80.70
28546;DHT22;15749;49.606;8.738;2023-02-19T09:33:45;15.00;80.90
28546;DHT22;15749;49.606;8.738;2023-02-19T09:36:16;15.00;80.80
28546;DHT22;15749;49.606;8.738;2023-02-19T09:38:47;15.00;81.50
28546;DHT22;15749;49.606;8.738;2023-02-19T09:41:24;15.00;80.70
28546;DHT22;15749;49.606;8.738;2023-02-19T09:43:57;15.00;80.80
28546;DHT22;15749;49.606;8.738;2023-02-19T09:46:30;15.00;80.80
28546;DHT22;15749;49.606;8.738;2023-02-19T09:49:04;15.00;80.90
28546;DHT22;15749;49.606;8.738;2023-02-19T09:51:37;15.00;80.90
28546;DHT22;15749;49.606;8.738;2023-02-19T09:54:19;15.00;80.90
28546;DHT22;15749;49.606;8.738;2023-02-19T09:56:50;15.00;80.90
28546;DHT22;15749;49.606;8.738;2023-02-19T09:59:22;15.00;80.90
28546;DHT22;15749;49.606;8.738;2023-02-19T10:01:56;15.00;81.10
28546;DHT22;15749;49.606;8.738;2023-02-19T10:04:27;15.10;81.10
28546;DHT22;15749;49.606;8.738;2023-02-19T10:06:57;15.10;81.10
28546;DHT22;15749;49.606;8.738;2023-02-19T10:09:31;15.10;81.20
28546;DHT22;15749;49.606;8.738;2023-02-19T10:12:12;15.10;81.10
28546;DHT22;15749;49.606;8.738;2023-02-19T10:14:45;15.10;81.20
28546;DHT22;15749;49.606;8.738;2023-02-19T10:17:22;15.10;81.30
28546;DHT22;15749;49.606;8.738;2023-02-19T10:19:53;15.10;81.30
28546;DHT22;15749;49.606;8.738;2023-02-19T10:22:26;15.10;81.20
28546;DHT22;15749;49.606;8.738;2023-02-19T10:24:56;15.20;81.30
28546;DHT22;15749;49.606;8.738;2023-02-19T10:27:28;15.20;81.10
28546;DHT22;15749;49.606;8.738;2023-02-19T10:29:59;15.20;81.30
28546;DHT22;15749;49.606;8.738;2023-02-19T10:32:28;15.20;81.20
28546;DHT22;15749;49.606;8.738;2023-02-19T10:35:10;15.20;81.10
28546;DHT22;15749;49.606;8.738;2023-02-19T10:37:44;15.20;81.20
28546;DHT22;15749;49.606;8.738;2023-02-19T10:40:18;15.30;81.40
28546;DHT22;15749;49.606;8.738;2023-02-19T10:42:53;15.30;81.30
28546;DHT22;15749;49.606;8.738;2023-02-19T10:45:32;15.30;81.40
28546;DHT22;15749;49.606;8.738;2023-02-19T10:48:21;15.30;81.70
28546;DHT22;15749;49.606;8.738;2023-02-19T10:50:54;15.40;81.70
28546;DHT22;15749;49.606;8.738;2023-02-19T10:53:39;15.40;81.80
28546;DHT22;15749;49.606;8.738;2023-02-19T10:56:15;15.40;81.70
28546;DHT22;15749;49.606;8.738;2023-02-19T10:58:53;15.50;81.60
28546;DHT22;15749;49.606;8.738;2023-02-19T11:01:24;15.50;81.60
28546;DHT22;15749;49.606;8.738;2023-02-19T11:04:14;15.60;81.60
28546;DHT22;15749;49.606;8.738;2023-02-19T11:06:44;15.60;81.40
28546;DHT22;15749;49.606;8.738;2023-02-19T11:09:26;15.70;81.30
28546;DHT22;15749;49.606;8.738;2023-02-19T11:11:58;15.70;81.00
28546;DHT22;15749;49.606;8.738;2023-02-19T11:14:29;15.80;81.00
28546;DHT22;15749;49.606;8.738;2023-02-19T11:17:03;15.70;80.80
28546;DHT22;15749;49.606;8.738;2023-02-19T11:19:36;15.80;80.70
28546;DHT22;15749;49.606;8.738;2023-02-19T11:22:26;15.80;80.40
28546;DHT22;15749;49.606;8.738;2023-02-19T11:25:01;15.80;80.20
28546;DHT22;15749;49.606;8.738;2023-02-19T11:27:35;15.80;80.90
28546;DHT22;15749;49.606;8.738;2023-02-19T11:30:38;15.80;80.10
28546;DHT22;15749;49.606;8.738;2023-02-19T11:33:21;15.90;79.80
28546;DHT22;15749;49.606;8.738;2023-02-19T11:38:58;15.90;79.90
28546;DHT22;15749;49.606;8.738;2023-02-19T11:42:03;15.90;80.00
28546;DHT22;15749;49.606;8.738;2023-02-19T11:45:04;15.90;79.50
28546;DHT22;15749;49.606;8.738;2023-02-19T11:48:05;15.90;79.50
28546;DHT22;15749;49.606;8.738;2023-02-19T11:50:51;15.90;79.40
28546;DHT22;15749;49.606;8.738;2023-02-19T11:53:26;15.90;79.60
28546;DHT22;15749;49.606;8.738;2023-02-19T11:56:05;15.90;79.70
28546;DHT22;15749;49.606;8.738;2023-02-19T12:01:57;15.90;80.50
28546;DHT22;15749;49.606;8.738;2023-02-19T12:05:20;15.90;79.60
28546;DHT22;15749;49.606;8.738;2023-02-19T12:08:16;16.00;79.60
28546;DHT22;15749;49.606;8.738;2023-02-19T12:11:12;16.00;79.40
28546;DHT22;15749;49.606;8.738;2023-02-19T12:14:11;16.00;79.40
28546;DHT22;15749;49.606;8.738;2023-02-19T12:16:53;16.00;79.50
28546;DHT22;15749;49.606;8.738;2023-02-19T12:19:48;16.10;79.10
28546;DHT22;15749;49.606;8.738;2023-02-19T12:22:28;16.00;79.40
28546;DHT22;15749;49.606;8.738;2023-02-19T12:25:24;16.00;79.40
28546;DHT22;15749;49.606;8.738;2023-02-19T12:34:32;16.00;79.60
28546;DHT22;15749;49.606;8.738;2023-02-19T12:37:21;16.00;79.60
28546;DHT22;15749;49.606;8.738;2023-02-19T12:40:02;16.00;79.60
28546;DHT22;15749;49.606;8.738;2023-02-19T12:42:54;16.10;79.80
28546;DHT22;15749;49.606;8.738;2023-02-19T12:45:34;16.00;79.80
28546;DHT22;15749;49.606;8.738;2023-02-19T12:48:15;16.00;79.90
28546;DHT22;15749;49.606;8.738;2023-02-19T12:50:54;16.00;79.90
28546;DHT22;15749;49.606;8.738;2023-02-19T12:53:39;16.00;80.10
28546;DHT22;15749;49.606;8.738;2023-02-19T12:56:16;16.00;80.10
28546;DHT22;15749;49.606;8.738;2023-02-19T12:58:51;16.00;80.10
28546;DHT22;15749;49.606;8.738;2023-02-19T13:01:25;16.00;80.20
28546;DHT22;15749;49.606;8.738;2023-02-19T13:04:13;16.00;80.80
28546;DHT22;15749;49.606;8.738;2023-02-19T13:06:51;16.00;79.90
28546;DHT22;15749;49.606;8.738;2023-02-19T13:09:27;16.00;79.70
28546;DHT22;15749;49.606;8.738;2023-02-19T13:12:02;16.00;79.80
28546;DHT22;15749;49.606;8.738;2023-02-19T13:14:36;16.00;79.80
28546;DHT22;15749;49.606;8.738;2023-02-19T13:17:18;16.00;79.90
28546;DHT22;15749;49.606;8.738;2023-02-19T13:19:54;16.00;80.00
28546;DHT22;15749;49.606;8.738;2023-02-19T13:22:33;16.00;80.00
28546;DHT22;15749;49.606;8.738;2023-02-19T13:25:22;16.00;79.90
28546;DHT22;15749;49.606;8.738;2023-02-19T13:28:16;16.00;79.80
28546;DHT22;15749;49.606;8.738;2023-02-19T13:31:06;16.00;79.80
28546;DHT22;15749;49.606;8.738;2023-02-19T13:34:00;16.00;79.90
28546;DHT22;15749;49.606;8.738;2023-02-19T13:36:35;16.00;79.90
28546;DHT22;15749;49.606;8.738;2023-02-19T13:39:06;16.10;79.90
28546;DHT22;15749;49.606;8.738;2023-02-19T13:41:40;16.10;79.90
28546;DHT22;15749;49.606;8.738;2023-02-19T13:44:16;16.00;79.80
28546;DHT22;15749;49.606;8.738;2023-02-19T13:46:48;16.10;79.90
28546;DHT22;15749;49.606;8.738;2023-02-19T13:49:39;16.10;79.80
28546;DHT22;15749;49.606;8.738;2023-02-19T13:52:33;16.10;79.50
28546;DHT22;15749;49.606;8.738;2023-02-19T13:58:58;16.10;79.00
28546;DHT22;15749;49.606;8.738;2023-02-19T14:04:47;16.10;78.80
28546;DHT22;15749;49.606;8.738;2023-02-19T14:10:57;16.10;79.00
28546;DHT22;15749;49.606;8.738;2023-02-19T14:17:04;16.00;78.70
28546;DHT22;15749;49.606;8.738;2023-02-19T14:19:55;16.00;78.80
28546;DHT22;15749;49.606;8.738;2023-02-19T14:23:07;16.00;78.70
28546;DHT22;15749;49.606;8.738;2023-02-19T14:25:50;16.00;79.30
28546;DHT22;15749;49.606;8.738;2023-02-19T14:28:29;16.00;78.40
28546;DHT22;15749;49.606;8.738;2023-02-19T14:31:14;16.00;78.30
28546;DHT22;15749;49.606;8.738;2023-02-19T14:33:49;16.00;78.50
28546;DHT22;15749;49.606;8.738;2023-02-19T14:36:38;16.00;78.70
28546;DHT22;15749;49.606;8.738;2023-02-19T14:39:14;16.00;78.60
28546;DHT22;15749;49.606;8.738;2023-02-19T14:41:48;16.00;78.80
28546;DHT22;15749;49.606;8.738;2023-02-19T14:44:22;15.90;78.70
28546;DHT22;15749;49.606;8.738;2023-02-19T14:46:56;16.00;78.60
28546;DHT22;15749;49.606;8.738;2023-02-19T14:49:31;16.00;78.40
28546;DHT22;15749;49.606;8.738;2023-02-19T14:52:16;16.00;79.10
28546;DHT22;15749;49.606;8.738;2023-02-19T14:54:50;16.00;78.30
28546;DHT22;15749;49.606;8.738;2023-02-19T14:57:24;15.90;78.30
28546;DHT22;15749;49.606;8.738;2023-02-19T14:59:58;16.00;78.20
28546;DHT22;15749;49.606;8.738;2023-02-19T15:02:31;15.90;78.10
28546;DHT22;15749;49.606;8.738;2023-02-19T15:05:00;15.90;78.90
28546;DHT22;15749;49.606;8.738;2023-02-19T15:07:31;15.90;79.10
28546;DHT22;15749;49.606;8.738;2023-02-19T15:10:03;15.90;78.20
28546;DHT22;15749;49.606;8.738;2023-02-19T15:12:38;15.90;78.00
28546;DHT22;15749;49.606;8.738;2023-02-19T15:15:16;15.90;78.20
28546;DHT22;15749;49.606;8.738;2023-02-19T15:17:49;16.00;77.80
28546;DHT22;15749;49.606;8.738;2023-02-19T15:20:22;16.00;78.00
28546;DHT22;15749;49.606;8.738;2023-02-19T15:22:54;15.90;77.80
28546;DHT22;15749;49.606;8.738;2023-02-19T15:25:28;15.90;77.80
28546;DHT22;15749;49.606;8.738;2023-02-19T15:28:18;15.90;77.80
28546;DHT22;15749;49.606;8.738;2023-02-19T15:30:49;15.90;77.70
28546;DHT22;15749;49.606;8.738;2023-02-19T15:33:19;15.90;77.90
28546;DHT22;15749;49.606;8.738;2023-02-19T15:35:49;15.90;77.80
28546;DHT22;15749;49.606;8.738;2023-02-19T15:38:19;15.90;77.80
28546;DHT22;15749;49.606;8.738;2023-02-19T15:40:50;15.90;77.90
28546;DHT22;15749;49.606;8.738;2023-02-19T15:43:22;15.90;77.90
28546;DHT22;15749;49.606;8.738;2023-02-19T15:45:55;15.90;77.60
28546;DHT22;15749;49.606;8.738;2023-02-19T15:48:28;15.90;78.50
28546;DHT22;15749;49.606;8.738;2023-02-19T15:51:07;15.90;77.90
28546;DHT22;15749;49.606;8.738;2023-02-19T15:53:43;15.90;77.80
28546;DHT22;15749;49.606;8.738;2023-02-19T15:56:16;15.90;77.70
28546;DHT22;15749;49.606;8.738;2023-02-19T15:58:57;15.90;77.80
28546;DHT22;15749;49.606;8.738;2023-02-19T16:01:32;15.90;78.40
28546;DHT22;15749;49.606;8.738;2023-02-19T16:04:02;15.90;77.60
28546;DHT22;15749;49.606;8.738;2023-02-19T16:06:52;15.90;77.80
28546;DHT22;15749;49.606;8.738;2023-02-19T16:09:27;15.90;77.60
28546;DHT22;15749;49.606;8.738;2023-02-19T16:11:59;15.90;77.60
28546;DHT22;15749;49.606;8.738;2023-02-19T16:14:30;15.90;77.80
28546;DHT22;15749;49.606;8.738;2023-02-19T16:17:12;15.90;77.70
28546;DHT22;15749;49.606;8.738;2023-02-19T16:19:44;15.90;77.50
28546;DHT22;15749;49.606;8.738;2023-02-19T16:22:18;15.90;77.80
28546;DHT22;15749;49.606;8.738;2023-02-19T16:24:49;15.90;77.60
28546;DHT22;15749;49.606;8.738;2023-02-19T16:27:29;15.90;77.60
28546;DHT22;15749;49.606;8.738;2023-02-19T16:30:04;15.90;77.50
28546;DHT22;15749;49.606;8.738;2023-02-19T16:32:37;15.90;77.50
28546;DHT22;15749;49.606;8.738;2023-02-19T16:35:34;15.90;77.50
28546;DHT22;15749;49.606;8.738;2023-02-19T16:38:11;15.90;77.20
28546;DHT22;15749;49.606;8.738;2023-02-19T16:41:10;15.90;77.20
28546;DHT22;15749;49.606;8.738;2023-02-19T16:43:41;15.80;77.30
28546;DHT22;15749;49.606;8.738;2023-02-19T16:46:11;15.90;77.20
28546;DHT22;15749;49.606;8.738;2023-02-19T16:48:44;15.80;77.10